createdAt,value
2018-06-23T00:00:17.916Z,14.30
2018-06-23T00:02:45.508Z,14.20
2018-06-23T00:05:12.999Z,14.20
2018-06-23T00:07:40.414Z,14.10
2018-06-23T00:10:07.780Z,14.00
2018-06-23T00:12:35.326Z,14.00
2018-06-23T00:15:03.100Z,14.00
2018-06-23T00:17:30.568Z,14.10
2018-06-23T00:19:58.024Z,14.10
2018-06-23T00:22:25.464Z,14.10
2018-06-23T00:24:52.818Z,14.10
2018-06-23T00:27:20.223Z,14.00
2018-06-23T00:29:47.660Z,14.00
2018-06-23T00:32:15.220Z,14.00
2018-06-23T00:34:44.176Z,14.00
2018-06-23T00:37:11.610Z,13.90
2018-06-23T00:39:39.004Z,13.90
2018-06-23T00:42:06.596Z,13.90
2018-06-23T00:44:34.035Z,13.70
2018-06-23T00:47:01.572Z,13.60
2018-06-23T00:49:28.938Z,13.60
2018-06-23T00:51:56.328Z,13.50
2018-06-23T00:54:23.800Z,13.40
2018-06-23T00:56:51.558Z,13.40
2018-06-23T00:59:30.591Z,13.50
2018-06-23T01:01:57.975Z,13.60
2018-06-23T01:04:25.361Z,13.60
2018-06-23T01:06:53.131Z,13.70
2018-06-23T01:09:20.584Z,13.50
2018-06-23T01:11:48.043Z,13.50
2018-06-23T01:14:15.547Z,13.60
2018-06-23T01:16:42.921Z,13.50
2018-06-23T01:19:10.300Z,13.50
2018-06-23T01:21:38.044Z,13.50
2018-06-23T01:24:05.541Z,13.50
2018-06-23T01:26:32.904Z,13.40
2018-06-23T01:29:00.300Z,13.40
2018-06-23T01:31:27.671Z,13.50
2018-06-23T01:33:55.136Z,13.50
2018-06-23T01:36:22.660Z,13.60
2018-06-23T01:38:50.035Z,13.50
2018-06-23T01:41:17.431Z,13.60
2018-06-23T01:43:44.876Z,13.60
2018-06-23T01:46:12.264Z,13.60
2018-06-23T01:48:39.636Z,13.70
2018-06-23T01:51:06.995Z,13.70
2018-06-23T01:53:34.412Z,13.70
2018-06-23T01:56:01.849Z,13.70
2018-06-23T01:58:29.288Z,13.50
2018-06-23T02:00:56.668Z,13.50
2018-06-23T02:03:24.036Z,13.50
2018-06-23T02:05:51.393Z,13.50
2018-06-23T02:08:18.807Z,13.50
2018-06-23T02:10:46.206Z,13.60
2018-06-23T02:13:13.632Z,13.60
2018-06-23T02:15:50.225Z,13.60
2018-06-23T02:18:23.600Z,13.60
2018-06-23T02:21:55.846Z,13.70
2018-06-23T02:24:28.804Z,13.70
2018-06-23T02:27:02.177Z,13.50
2018-06-23T02:29:35.079Z,13.40
2018-06-23T02:32:08.076Z,13.40
2018-06-23T02:34:41.832Z,13.40
2018-06-23T02:37:09.028Z,13.40
2018-06-23T02:39:36.196Z,13.40
2018-06-23T02:42:03.379Z,13.30
2018-06-23T02:44:30.586Z,13.40
2018-06-23T02:46:57.790Z,13.30
2018-06-23T02:49:24.971Z,13.30
2018-06-23T02:51:52.136Z,13.30
2018-06-23T02:54:19.332Z,13.30
2018-06-23T02:56:46.521Z,13.20
2018-06-23T02:59:13.724Z,13.10
2018-06-23T03:01:40.929Z,13.10
2018-06-23T03:04:08.107Z,13.10
2018-06-23T03:06:35.316Z,13.00
2018-06-23T03:09:04.638Z,12.90
2018-06-23T03:11:31.797Z,13.00
2018-06-23T03:13:59.092Z,12.90
2018-06-23T03:16:26.339Z,12.90
2018-06-23T03:18:53.632Z,12.90
2018-06-23T03:21:20.856Z,12.90
2018-06-23T03:23:48.243Z,12.80
2018-06-23T03:26:15.716Z,12.70
2018-06-23T03:28:43.652Z,12.80
2018-06-23T03:31:10.867Z,12.80
2018-06-23T03:33:38.082Z,12.80
2018-06-23T03:36:05.306Z,12.70
2018-06-23T03:38:32.507Z,12.60
2018-06-23T03:40:59.775Z,12.60
2018-06-23T03:43:26.967Z,12.60
2018-06-23T03:45:54.156Z,12.60
2018-06-23T03:48:21.375Z,12.60
2018-06-23T03:50:48.683Z,12.60
2018-06-23T03:53:15.958Z,12.60
2018-06-23T03:55:43.143Z,12.70
2018-06-23T03:58:12.006Z,12.70
2018-06-23T04:00:43.813Z,12.70
2018-06-23T04:03:11.032Z,12.80
2018-06-23T04:05:42.888Z,12.70
2018-06-23T04:08:10.108Z,12.70
2018-06-23T04:10:37.326Z,12.80
2018-06-23T04:13:04.600Z,12.70
2018-06-23T04:15:31.749Z,12.70
2018-06-23T04:17:58.899Z,12.90
2018-06-23T04:20:26.058Z,12.80
2018-06-23T04:22:53.231Z,12.80
2018-06-23T04:25:20.494Z,12.70
2018-06-23T04:27:47.769Z,12.80
2018-06-23T04:30:15.273Z,12.80
2018-06-23T04:32:42.431Z,12.80
2018-06-23T04:35:09.624Z,12.90
2018-06-23T04:37:36.827Z,12.80
2018-06-23T04:40:03.988Z,12.80
2018-06-23T04:42:31.165Z,12.80
2018-06-23T04:44:58.363Z,12.80
2018-06-23T04:47:25.537Z,12.90
2018-06-23T04:49:52.794Z,12.90
2018-06-23T04:52:19.948Z,12.90
2018-06-23T04:54:47.132Z,12.80
2018-06-23T04:57:14.380Z,12.90
2018-06-23T04:59:41.628Z,12.90
2018-06-23T05:02:08.831Z,13.00
2018-06-23T05:04:36.007Z,13.00
2018-06-23T05:07:03.183Z,13.00
2018-06-23T05:09:30.363Z,13.00
2018-06-23T05:11:57.539Z,13.10
2018-06-23T05:14:24.688Z,13.20
2018-06-23T05:16:51.983Z,13.20
2018-06-23T05:19:19.180Z,13.20
2018-06-23T05:21:46.468Z,13.20
2018-06-23T05:24:13.692Z,13.30
2018-06-23T05:26:40.972Z,13.30
2018-06-23T05:31:35.700Z,13.40
2018-06-23T05:34:02.904Z,13.50
2018-06-23T05:36:30.115Z,13.40
2018-06-23T05:38:57.352Z,13.50
2018-06-23T05:41:24.538Z,13.50
2018-06-23T05:43:51.764Z,13.50
2018-06-23T05:46:18.945Z,13.50
2018-06-23T05:48:46.107Z,13.50
2018-06-23T05:51:13.268Z,13.50
2018-06-23T05:53:40.415Z,13.60
2018-06-23T05:56:07.617Z,13.60
2018-06-23T05:58:34.804Z,13.60
2018-06-23T06:01:01.983Z,13.60
2018-06-23T06:03:29.220Z,13.60
2018-06-23T06:05:56.387Z,13.50
2018-06-23T06:08:23.694Z,13.50
2018-06-23T06:10:50.884Z,13.50
2018-06-23T06:13:18.063Z,13.50
2018-06-23T06:15:45.227Z,13.50
2018-06-23T06:18:12.492Z,13.40
2018-06-23T06:20:39.651Z,13.20
2018-06-23T06:23:06.862Z,13.20
2018-06-23T06:25:34.056Z,13.20
2018-06-23T06:28:01.269Z,13.20
2018-06-23T06:30:28.467Z,13.30
2018-06-23T06:32:55.603Z,13.30
2018-06-23T06:35:22.784Z,13.30
2018-06-23T06:37:49.952Z,13.30
2018-06-23T06:40:17.387Z,13.20
2018-06-23T06:42:44.603Z,13.20
2018-06-23T06:45:11.836Z,13.20
2018-06-23T06:47:39.133Z,13.20
2018-06-23T06:50:06.343Z,13.30
2018-06-23T06:52:33.541Z,13.30
2018-06-23T06:55:05.747Z,13.30
2018-06-23T06:57:32.902Z,13.40
2018-06-23T07:00:00.125Z,13.50
2018-06-23T07:02:27.336Z,13.70
2018-06-23T07:04:54.520Z,13.80
2018-06-23T07:07:21.720Z,14.00
2018-06-23T07:09:48.960Z,14.10
2018-06-23T07:12:16.300Z,14.30
2018-06-23T07:14:43.563Z,14.40
2018-06-23T07:17:10.817Z,14.50
2018-06-23T07:19:38.156Z,14.50
2018-06-23T07:22:05.668Z,14.60
2018-06-23T07:24:33.003Z,14.80
2018-06-23T07:27:00.506Z,15.00
2018-06-23T07:29:27.869Z,15.00
2018-06-23T07:31:56.645Z,15.10
2018-06-23T07:34:24.125Z,15.20
2018-06-23T07:36:51.403Z,15.40
2018-06-23T07:39:18.863Z,15.50
2018-06-23T07:41:46.668Z,15.50
2018-06-23T07:44:14.220Z,15.70
2018-06-23T07:46:41.750Z,15.90
2018-06-23T07:49:09.104Z,15.80
2018-06-23T07:51:36.535Z,15.90
2018-06-23T07:54:03.902Z,15.90
2018-06-23T07:56:31.298Z,15.80
2018-06-23T07:58:58.710Z,15.80
2018-06-23T08:01:26.187Z,15.80
2018-06-23T08:03:53.615Z,15.90
2018-06-23T08:06:21.025Z,16.10
2018-06-23T08:08:48.631Z,15.90
2018-06-23T08:11:16.071Z,15.70
2018-06-23T08:13:43.432Z,15.60
2018-06-23T08:16:10.762Z,15.70
2018-06-23T08:18:38.571Z,15.80
2018-06-23T08:21:06.064Z,15.80
2018-06-23T08:23:33.387Z,16.00
2018-06-23T08:26:00.747Z,16.00
2018-06-23T08:28:28.574Z,16.20
2018-06-23T08:30:55.951Z,16.30
2018-06-23T08:33:23.323Z,16.50
2018-06-23T08:35:50.660Z,16.50
2018-06-23T08:38:19.395Z,16.70
2018-06-23T08:40:47.427Z,16.80
2018-06-23T08:43:14.831Z,16.70
2018-06-23T08:45:42.201Z,16.80
2018-06-23T08:48:09.577Z,16.80
2018-06-23T08:50:36.990Z,16.80
2018-06-23T08:53:04.364Z,16.70
2018-06-23T08:55:32.119Z,16.70
2018-06-23T08:57:59.460Z,16.60
2018-06-23T09:00:26.944Z,16.60
2018-06-23T09:02:54.373Z,16.80
2018-06-23T09:05:21.830Z,17.00
2018-06-23T09:07:49.164Z,17.20
2018-06-23T09:10:16.540Z,17.20
2018-06-23T09:12:45.280Z,17.40
2018-06-23T09:15:13.612Z,17.50
2018-06-23T09:17:41.087Z,17.50
2018-06-23T09:20:08.596Z,17.50
2018-06-23T09:22:36.136Z,17.50
2018-06-23T09:25:03.665Z,17.50
2018-06-23T09:27:31.722Z,17.50
2018-06-23T09:29:59.220Z,17.60
2018-06-23T09:32:26.630Z,17.60
2018-06-23T09:34:54.116Z,17.80
2018-06-23T09:37:21.582Z,18.00
2018-06-23T09:39:50.036Z,18.00
2018-06-23T09:42:18.324Z,18.00
2018-06-23T09:44:45.770Z,18.00
2018-06-23T09:47:13.191Z,18.10
2018-06-23T09:49:40.876Z,18.10
2018-06-23T09:52:08.773Z,18.00
2018-06-23T09:54:36.272Z,18.00
2018-06-23T09:57:04.193Z,18.20
2018-06-23T09:59:31.556Z,18.40
2018-06-23T10:02:04.708Z,18.30
2018-06-23T10:04:32.352Z,18.20
2018-06-23T10:06:59.751Z,18.00
2018-06-23T10:09:27.364Z,18.40
2018-06-23T10:11:54.796Z,18.90
2018-06-23T10:14:22.215Z,19.00
2018-06-23T10:16:49.717Z,19.20
2018-06-23T10:19:17.098Z,18.90
2018-06-23T10:21:44.509Z,18.90
2018-06-23T10:24:11.880Z,18.90
2018-06-23T10:26:39.279Z,18.60
2018-06-23T10:29:06.656Z,18.70
2018-06-23T10:34:05.983Z,19.60
2018-06-23T10:36:38.028Z,19.80
2018-06-23T10:39:07.486Z,19.60
2018-06-23T10:41:34.920Z,19.40
2018-06-23T10:44:02.388Z,19.40
2018-06-23T10:46:31.896Z,19.30
2018-06-23T10:48:59.392Z,19.50
2018-06-23T10:51:26.832Z,19.90
2018-06-23T10:53:54.463Z,20.00
2018-06-23T10:56:21.926Z,19.90
2018-06-23T10:58:49.393Z,19.70
2018-06-23T11:01:16.857Z,19.70
2018-06-23T11:03:44.337Z,19.50
2018-06-23T11:06:11.835Z,19.40
2018-06-23T11:08:39.246Z,19.60
2018-06-23T11:13:36.767Z,19.80
2018-06-23T11:16:04.365Z,19.80
2018-06-23T11:18:32.024Z,19.60
2018-06-23T11:21:00.252Z,19.30
2018-06-23T11:23:27.771Z,19.00
2018-06-23T11:25:56.268Z,18.80
2018-06-23T11:28:23.648Z,18.60
2018-06-23T11:30:51.408Z,18.50
2018-06-23T11:33:19.036Z,18.50
2018-06-23T11:35:46.483Z,18.50
2018-06-23T11:38:13.918Z,18.60
2018-06-23T11:40:41.331Z,18.80
2018-06-23T11:43:08.772Z,18.90
2018-06-23T11:45:36.148Z,19.10
2018-06-23T11:51:00.501Z,19.70
2018-06-23T11:53:28.285Z,19.70
2018-06-23T11:55:55.687Z,19.20
2018-06-23T11:58:23.066Z,19.20
2018-06-23T12:00:50.566Z,19.00
2018-06-23T12:03:18.340Z,19.00
2018-06-23T12:05:45.824Z,19.10
2018-06-23T12:08:13.279Z,19.40
2018-06-23T12:10:41.376Z,19.80
2018-06-23T12:13:09.062Z,19.80
2018-06-23T12:15:36.527Z,19.80
2018-06-23T12:18:04.182Z,19.70
2018-06-23T12:20:35.020Z,19.50
2018-06-23T12:23:02.481Z,19.50
2018-06-23T12:25:29.966Z,19.60
2018-06-23T12:27:57.363Z,19.90
2018-06-23T12:30:24.873Z,20.20
2018-06-23T12:32:52.301Z,20.30
2018-06-23T12:35:20.899Z,20.20
2018-06-23T12:37:48.306Z,20.10
2018-06-23T12:40:15.868Z,19.80
2018-06-23T12:42:43.428Z,19.60
2018-06-23T12:45:10.998Z,19.30
2018-06-23T12:47:38.451Z,19.20
2018-06-23T12:50:07.750Z,19.10
2018-06-23T12:52:36.650Z,19.50
2018-06-23T12:55:04.223Z,20.00
2018-06-23T12:57:31.665Z,20.40
2018-06-23T12:59:59.125Z,20.60
2018-06-23T13:02:26.573Z,20.50
2018-06-23T13:04:58.505Z,20.40
2018-06-23T13:07:26.008Z,20.10
2018-06-23T13:09:53.519Z,19.80
2018-06-23T13:12:20.923Z,19.50
2018-06-23T13:14:48.337Z,19.30
2018-06-23T13:17:15.893Z,19.20
2018-06-23T13:19:45.964Z,18.90
2018-06-23T13:22:13.406Z,18.80
2018-06-23T13:27:08.328Z,19.10
2018-06-23T13:29:35.680Z,19.20
2018-06-23T13:32:03.071Z,19.20
2018-06-23T13:34:30.441Z,19.10
2018-06-23T13:36:57.812Z,19.10
2018-06-23T13:39:25.203Z,19.20
2018-06-23T13:41:52.596Z,19.20
2018-06-23T13:44:19.983Z,19.40
2018-06-23T13:46:47.354Z,20.00
2018-06-23T13:49:14.716Z,20.60
2018-06-23T13:54:09.626Z,20.60
2018-06-23T13:56:37.047Z,20.50
2018-06-23T13:59:04.431Z,20.50
2018-06-23T14:01:31.859Z,20.60
2018-06-23T14:03:59.594Z,20.40
2018-06-23T14:06:26.929Z,20.40
2018-06-23T14:11:22.471Z,20.10
2018-06-23T14:13:49.876Z,20.00
2018-06-23T14:16:17.442Z,19.90
2018-06-23T14:18:45.022Z,19.70
2018-06-23T14:21:12.429Z,19.60
2018-06-23T14:23:39.779Z,19.40
2018-06-23T14:26:07.136Z,19.20
2018-06-23T14:28:34.485Z,19.30
2018-06-23T14:31:01.839Z,19.10
2018-06-23T14:33:29.227Z,19.40
2018-06-23T14:35:56.572Z,19.80
2018-06-23T14:38:24.141Z,20.20
2018-06-23T14:40:51.783Z,20.50
2018-06-23T14:43:19.306Z,20.80
2018-06-23T14:45:46.743Z,20.80
2018-06-23T14:48:14.665Z,20.80
2018-06-23T14:50:42.843Z,20.90
2018-06-23T14:53:10.287Z,20.90
2018-06-23T14:55:37.865Z,21.00
2018-06-23T14:58:09.220Z,21.20
2018-06-23T15:00:36.613Z,21.50
2018-06-23T15:03:04.200Z,21.80
2018-06-23T15:05:31.378Z,22.10
2018-06-23T15:08:13.754Z,22.20
2018-06-23T15:10:52.782Z,22.40
2018-06-23T15:13:20.405Z,22.40
2018-06-23T15:15:47.698Z,22.40
2018-06-23T15:18:17.487Z,22.00
2018-06-23T15:20:44.840Z,21.70
2018-06-23T15:23:12.342Z,21.30
2018-06-23T15:25:39.607Z,21.10
2018-06-23T15:28:06.900Z,21.00
2018-06-23T15:30:34.185Z,20.70
2018-06-23T15:33:01.423Z,20.40
2018-06-23T15:35:28.691Z,20.30
2018-06-23T15:37:55.988Z,20.20
2018-06-23T15:40:23.279Z,20.10
2018-06-23T15:42:50.621Z,19.80
2018-06-23T15:45:18.036Z,19.80
2018-06-23T15:47:45.434Z,19.80
2018-06-23T15:50:12.722Z,20.00
2018-06-23T15:52:40.151Z,20.00
2018-06-23T15:55:07.403Z,19.90
2018-06-23T15:57:34.683Z,19.80
2018-06-23T16:00:01.928Z,19.80
2018-06-23T16:02:29.205Z,20.00
2018-06-23T16:04:59.030Z,20.10
2018-06-23T16:07:26.287Z,20.00
2018-06-23T16:09:53.576Z,20.30
2018-06-23T16:12:20.843Z,20.40
2018-06-23T16:14:48.239Z,20.30
2018-06-23T16:17:15.588Z,20.40
2018-06-23T16:19:45.143Z,20.40
2018-06-23T16:22:12.904Z,20.30
2018-06-23T16:24:40.144Z,20.20
2018-06-23T16:27:07.359Z,20.20
2018-06-23T16:29:34.659Z,20.00
2018-06-23T16:32:01.879Z,19.90
2018-06-23T16:34:31.035Z,19.80
2018-06-23T16:36:58.252Z,19.60
2018-06-23T16:39:25.679Z,19.60
2018-06-23T16:41:53.206Z,19.60
2018-06-23T16:44:20.614Z,19.50
2018-06-23T16:46:49.503Z,19.50
2018-06-23T16:49:16.914Z,19.50
2018-06-23T16:51:44.326Z,19.60
2018-06-23T16:54:11.794Z,19.60
2018-06-23T16:56:44.182Z,19.60
2018-06-23T16:59:11.632Z,19.50
2018-06-23T17:01:39.079Z,19.30
2018-06-23T17:04:06.513Z,19.20
2018-06-23T17:06:34.015Z,19.40
2018-06-23T17:09:01.420Z,19.40
2018-06-23T17:11:30.932Z,19.40
2018-06-23T17:13:58.212Z,19.30
2018-06-23T17:16:25.640Z,19.30
2018-06-23T17:18:53.006Z,19.30
2018-06-23T17:21:20.371Z,19.30
2018-06-23T17:23:47.747Z,19.40
2018-06-23T17:26:18.195Z,19.60
2018-06-23T17:28:45.571Z,19.50
2018-06-23T17:31:12.935Z,19.50
2018-06-23T17:33:40.317Z,19.60
2018-06-23T17:36:07.664Z,19.70
2018-06-23T17:38:35.180Z,19.50
2018-06-23T17:41:06.189Z,19.40
2018-06-23T17:43:33.468Z,19.30
2018-06-23T17:46:00.836Z,19.30
2018-06-23T17:48:28.261Z,19.20
2018-06-23T17:50:55.772Z,19.20
2018-06-23T17:53:23.168Z,19.10
2018-06-23T17:55:50.663Z,19.20
2018-06-23T17:58:20.140Z,19.20
2018-06-23T18:00:47.535Z,19.20
2018-06-23T18:03:14.917Z,19.10
2018-06-23T18:05:42.269Z,19.20
2018-06-23T18:08:09.995Z,19.20
2018-06-23T18:10:37.479Z,19.20
2018-06-23T18:13:05.033Z,19.20
2018-06-23T18:15:34.488Z,19.10
2018-06-23T18:18:02.028Z,19.10
2018-06-23T18:20:29.928Z,19.00
2018-06-23T18:22:57.463Z,19.00
2018-06-23T18:25:24.933Z,19.10
2018-06-23T18:27:52.697Z,19.10
2018-06-23T18:30:20.132Z,19.00
2018-06-23T18:32:47.715Z,19.00
2018-06-23T18:35:15.124Z,18.90
2018-06-23T18:37:42.584Z,18.80
2018-06-23T18:40:10.009Z,18.90
2018-06-23T18:42:37.959Z,19.00
2018-06-23T18:45:05.400Z,19.00
2018-06-23T18:47:32.835Z,19.00
2018-06-23T18:50:00.270Z,19.00
2018-06-23T18:52:27.731Z,18.90
2018-06-23T18:54:55.156Z,18.90
2018-06-23T18:57:22.594Z,18.90
2018-06-23T18:59:50.099Z,18.90
2018-06-23T19:02:17.539Z,18.90
2018-06-23T19:04:45.115Z,18.80
2018-06-23T19:09:40.529Z,18.70
2018-06-23T19:12:09.591Z,18.60
2018-06-23T19:14:37.036Z,18.60
2018-06-23T19:17:04.403Z,18.50
2018-06-23T19:19:31.821Z,18.50
2018-06-23T19:21:59.150Z,18.40
2018-06-23T19:24:26.687Z,18.30
2018-06-23T19:26:54.084Z,18.30
2018-06-23T19:29:21.475Z,18.20
2018-06-23T19:31:49.005Z,18.20
2018-06-23T19:34:16.659Z,18.20
2018-06-23T19:36:44.045Z,18.20
2018-06-23T19:39:11.437Z,18.20
2018-06-23T19:41:38.808Z,18.10
2018-06-23T19:44:06.331Z,18.10
2018-06-23T19:48:54.959Z,18.10
2018-06-23T19:51:22.339Z,18.00
2018-06-23T19:53:49.828Z,17.90
2018-06-23T19:56:17.352Z,17.80
2018-06-23T19:58:44.886Z,17.80
2018-06-23T20:01:12.242Z,17.70
2018-06-23T20:03:39.652Z,17.70
2018-06-23T20:06:07.467Z,17.70
2018-06-23T20:08:34.874Z,17.70
2018-06-23T20:11:02.257Z,17.70
2018-06-23T20:13:29.795Z,17.60
2018-06-23T20:15:57.423Z,17.60
2018-06-23T20:18:29.168Z,17.50
2018-06-23T20:20:56.944Z,17.40
2018-06-23T20:23:24.384Z,17.40
2018-06-23T20:25:51.980Z,17.40
2018-06-23T20:28:20.020Z,17.20
2018-06-23T20:30:48.181Z,17.20
2018-06-23T20:33:16.618Z,17.10
2018-06-23T20:35:44.136Z,17.00
2018-06-23T20:38:11.654Z,17.00
2018-06-23T20:40:39.176Z,17.00
2018-06-23T20:43:06.634Z,16.80
2018-06-23T20:45:34.171Z,16.80
2018-06-23T20:48:02.139Z,16.70
2018-06-23T20:50:29.914Z,16.60
2018-06-23T20:52:57.420Z,16.60
2018-06-23T20:55:25.186Z,16.60
2018-06-23T20:57:52.678Z,16.50
2018-06-23T21:00:20.268Z,16.40
2018-06-23T21:02:47.771Z,16.20
2018-06-23T21:05:15.283Z,16.30
2018-06-23T21:07:42.826Z,16.30
2018-06-23T21:10:21.824Z,16.30
2018-06-23T21:12:49.495Z,16.20
2018-06-23T21:15:16.995Z,16.10
2018-06-23T21:17:44.541Z,16.00
2018-06-23T21:20:11.968Z,16.00
2018-06-23T21:22:40.843Z,16.00
2018-06-23T21:25:08.665Z,16.00
2018-06-23T21:27:36.135Z,16.00
2018-06-23T21:32:37.502Z,15.80
2018-06-23T21:35:04.759Z,15.80
2018-06-23T21:37:32.047Z,15.60
2018-06-23T21:39:59.279Z,15.60
2018-06-23T21:42:26.523Z,15.50
2018-06-23T21:44:53.799Z,15.50
2018-06-23T21:47:21.563Z,15.50
2018-06-23T21:49:48.851Z,15.50
2018-06-23T21:52:16.196Z,15.50
2018-06-23T21:54:43.451Z,15.50
2018-06-23T21:57:10.883Z,15.50
2018-06-23T21:59:38.435Z,15.40
2018-06-23T22:02:05.847Z,15.30
2018-06-23T22:04:33.276Z,15.30
2018-06-23T22:07:00.724Z,15.40
2018-06-23T22:09:28.204Z,15.40
2018-06-23T22:11:55.686Z,15.40
2018-06-23T22:14:23.136Z,15.50
2018-06-23T22:16:50.652Z,15.40
2018-06-23T22:19:18.108Z,15.40
2018-06-23T22:21:45.688Z,15.40
2018-06-23T22:24:13.251Z,15.40
2018-06-23T22:26:40.689Z,15.40
2018-06-23T22:29:08.498Z,15.40
2018-06-23T22:31:36.319Z,15.50
2018-06-23T22:34:03.772Z,15.30
2018-06-23T22:36:31.300Z,15.30
2018-06-23T22:38:58.700Z,15.20
2018-06-23T22:41:26.142Z,15.30
2018-06-23T22:43:53.621Z,15.30
2018-06-23T22:46:21.057Z,15.30
2018-06-23T22:48:48.649Z,15.30
2018-06-23T22:51:16.823Z,15.30
2018-06-23T22:53:44.254Z,15.30
2018-06-23T22:56:11.732Z,15.30
2018-06-23T22:58:39.113Z,15.20
2018-06-23T23:01:06.588Z,15.20
2018-06-23T23:03:34.482Z,15.20
2018-06-23T23:06:02.750Z,15.10
2018-06-23T23:08:30.624Z,15.00
2018-06-23T23:10:58.048Z,14.90
2018-06-23T23:13:25.591Z,14.90
2018-06-23T23:15:53.475Z,14.80
2018-06-23T23:18:20.996Z,14.90
2018-06-23T23:20:48.475Z,14.80
2018-06-23T23:23:15.920Z,14.80
2018-06-23T23:25:43.425Z,14.80
2018-06-23T23:28:11.408Z,14.80
2018-06-23T23:30:38.859Z,14.70
2018-06-23T23:33:06.388Z,14.70
2018-06-23T23:35:33.887Z,14.70
2018-06-23T23:38:01.326Z,14.70
2018-06-23T23:40:28.749Z,14.60
2018-06-23T23:42:56.157Z,14.60
2018-06-23T23:45:23.648Z,14.60
2018-06-23T23:47:51.201Z,14.60
2018-06-23T23:50:18.774Z,14.60
2018-06-23T23:52:46.411Z,14.50
2018-06-23T23:55:13.856Z,14.50
2018-06-23T23:57:41.460Z,14.70
